createdAt,value
2019-05-07T00:01:55.504Z,2.21
2019-05-07T00:04:25.032Z,2.26
2019-05-07T00:06:54.671Z,2.30
2019-05-07T00:09:24.079Z,2.35
2019-05-07T00:11:53.722Z,2.39
2019-05-07T00:14:24.097Z,2.40
2019-05-07T00:16:53.703Z,2.47
2019-05-07T00:19:23.619Z,2.61
2019-05-07T00:21:53.652Z,2.80
2019-05-07T00:24:23.097Z,2.94
2019-05-07T00:26:53.270Z,2.95
2019-05-07T00:29:22.819Z,2.94
2019-05-07T00:31:52.330Z,2.96
2019-05-07T00:34:23.712Z,2.94
2019-05-07T00:37:06.846Z,2.91
2019-05-07T00:39:55.266Z,2.83
2019-05-07T00:42:26.332Z,2.73
2019-05-07T00:44:57.658Z,2.64
2019-05-07T00:47:27.231Z,2.57
2019-05-07T00:49:59.069Z,2.52
2019-05-07T00:52:28.536Z,2.47
2019-05-07T00:54:58.059Z,2.41
2019-05-07T00:57:27.813Z,2.33
2019-05-07T00:59:57.254Z,2.25
2019-05-07T01:02:26.659Z,2.23
2019-05-07T01:04:56.315Z,2.17
2019-05-07T01:07:25.784Z,2.09
2019-05-07T01:09:55.231Z,2.01
2019-05-07T01:12:24.655Z,1.94
2019-05-07T01:14:54.162Z,1.85
2019-05-07T01:17:23.557Z,1.78
2019-05-07T01:19:53.377Z,1.69
2019-05-07T01:22:22.933Z,1.64
2019-05-07T01:24:53.545Z,1.62
2019-05-07T01:27:23.081Z,1.59
2019-05-07T01:29:53.599Z,1.57
2019-05-07T01:32:32.795Z,1.53
2019-05-07T01:35:05.724Z,1.49
2019-05-07T01:37:35.131Z,1.44
2019-05-07T01:40:05.135Z,1.40
2019-05-07T01:42:36.571Z,1.35
2019-05-07T01:45:07.822Z,1.37
2019-05-07T01:47:37.588Z,1.34
2019-05-07T01:50:07.163Z,1.37
2019-05-07T01:52:36.573Z,1.39
2019-05-07T01:55:06.730Z,1.34
2019-05-07T01:57:36.167Z,1.34
2019-05-07T02:00:07.648Z,1.28
2019-05-07T02:02:44.376Z,1.24
2019-05-07T02:05:15.765Z,1.16
2019-05-07T02:07:46.888Z,1.11
2019-05-07T02:10:24.945Z,1.06
2019-05-07T02:12:54.366Z,1.02
2019-05-07T02:15:23.933Z,0.93
2019-05-07T02:17:53.356Z,0.90
2019-05-07T02:20:22.804Z,0.87
2019-05-07T02:22:53.243Z,0.85
2019-05-07T02:25:22.838Z,0.80
2019-05-07T02:27:52.847Z,0.77
2019-05-07T02:30:23.629Z,0.73
2019-05-07T02:32:54.220Z,0.65
2019-05-07T02:35:24.761Z,0.59
2019-05-07T02:37:57.003Z,0.56
2019-05-07T02:40:28.309Z,0.57
2019-05-07T02:42:57.746Z,0.60
2019-05-07T02:45:38.037Z,0.58
2019-05-07T02:48:07.743Z,0.58
2019-05-07T02:50:48.611Z,0.60
2019-05-07T02:53:26.034Z,0.62
2019-05-07T02:55:57.218Z,0.62
2019-05-07T02:58:26.715Z,0.59
2019-05-07T03:00:56.419Z,0.55
2019-05-07T03:03:26.021Z,0.57
2019-05-07T03:05:57.172Z,0.54
2019-05-07T03:08:27.656Z,0.52
2019-05-07T03:10:57.179Z,0.48
2019-05-07T03:13:27.210Z,0.44
2019-05-07T03:15:56.913Z,0.41
2019-05-07T03:18:26.490Z,0.36
2019-05-07T03:21:04.447Z,0.38
2019-05-07T03:23:35.684Z,0.39
2019-05-07T03:26:09.801Z,0.39
2019-05-07T03:28:53.173Z,0.38
2019-05-07T03:31:29.502Z,0.31
2019-05-07T03:34:06.352Z,0.27
2019-05-07T03:36:47.701Z,0.22
2019-05-07T03:39:14.683Z,0.23
2019-05-07T03:41:45.075Z,0.20
2019-05-07T03:44:33.815Z,0.18
2019-05-07T03:47:17.229Z,0.18
2019-05-07T03:49:46.746Z,0.21
2019-05-07T03:52:16.853Z,0.28
2019-05-07T03:54:46.557Z,0.28
2019-05-07T03:57:16.475Z,0.29
2019-05-07T03:59:45.886Z,0.25
2019-05-07T04:02:15.392Z,0.23
2019-05-07T04:04:44.791Z,0.21
2019-05-07T04:07:14.302Z,0.19
2019-05-07T04:09:44.070Z,0.18
2019-05-07T04:12:13.554Z,0.19
2019-05-07T04:14:43.441Z,0.23
2019-05-07T04:17:21.160Z,0.22
2019-05-07T04:19:44.382Z,0.21
2019-05-07T04:22:14.307Z,0.20
2019-05-07T04:24:54.422Z,0.21
2019-05-07T04:27:33.021Z,0.22
2019-05-07T04:30:03.674Z,0.23
2019-05-07T04:32:35.257Z,0.26
2019-05-07T04:35:12.799Z,0.29
2019-05-07T04:37:42.820Z,0.31
2019-05-07T04:40:14.228Z,0.34
2019-05-07T04:42:43.913Z,0.41
2019-05-07T04:45:13.931Z,0.52
2019-05-07T04:47:47.461Z,0.51
2019-05-07T04:50:37.226Z,0.52
2019-05-07T04:52:47.748Z,0.56
2019-05-07T04:55:17.399Z,0.57
2019-05-07T04:57:46.814Z,0.61
2019-05-07T05:00:17.562Z,0.63
2019-05-07T05:02:57.886Z,0.75
2019-05-07T05:05:27.579Z,0.91
2019-05-07T05:07:57.064Z,0.96
2019-05-07T05:10:26.508Z,1.02
2019-05-07T05:12:55.909Z,1.11
2019-05-07T05:15:25.343Z,1.21
2019-05-07T05:17:54.805Z,1.21
2019-05-07T05:20:25.858Z,1.31
2019-05-07T05:22:59.663Z,1.25
2019-05-07T05:25:33.296Z,1.30
2019-05-07T05:28:02.698Z,1.31
2019-05-07T05:30:33.950Z,1.38
2019-05-07T05:33:04.883Z,1.42
2019-05-07T05:35:34.827Z,1.44
2019-05-07T05:38:04.596Z,1.46
2019-05-07T05:40:34.033Z,1.50
2019-05-07T05:43:22.333Z,1.57
2019-05-07T05:45:59.137Z,1.64
2019-05-07T05:48:28.596Z,1.72
2019-05-07T05:51:08.543Z,1.81
2019-05-07T05:53:45.623Z,1.91
2019-05-07T05:56:33.254Z,1.97
2019-05-07T05:59:27.890Z,2.23
2019-05-07T06:01:58.246Z,2.52
2019-05-07T06:04:44.681Z,2.79
2019-05-07T06:07:18.541Z,2.99
2019-05-07T06:09:58.595Z,3.15
2019-05-07T06:12:36.041Z,3.29
2019-05-07T06:15:12.660Z,3.57
2019-05-07T06:17:58.984Z,3.72
2019-05-07T06:20:33.400Z,3.92
2019-05-07T06:23:12.875Z,4.21
2019-05-07T06:25:44.016Z,4.39
2019-05-07T06:28:13.770Z,4.61
2019-05-07T06:30:43.474Z,4.80
2019-05-07T06:33:12.906Z,4.99
2019-05-07T06:35:43.032Z,5.13
2019-05-07T06:38:13.628Z,5.29
2019-05-07T06:40:47.721Z,5.48
2019-05-07T06:43:18.808Z,5.63
2019-05-07T06:45:51.867Z,5.81
2019-05-07T06:48:36.747Z,5.98
2019-05-07T06:50:58.560Z,6.16
2019-05-07T06:53:33.264Z,6.28
2019-05-07T06:56:04.355Z,6.46
2019-05-07T06:58:42.034Z,6.60
2019-05-07T07:01:22.859Z,6.81
2019-05-07T07:03:55.632Z,6.92
2019-05-07T07:06:26.722Z,6.94
2019-05-07T07:09:03.951Z,7.09
2019-05-07T07:11:38.109Z,7.23
2019-05-07T07:14:09.151Z,7.21
2019-05-07T07:16:38.612Z,7.40
2019-05-07T07:19:08.170Z,7.41
2019-05-07T07:21:37.671Z,7.45
2019-05-07T07:24:08.289Z,7.68
2019-05-07T07:26:37.986Z,7.80
2019-05-07T07:29:08.575Z,7.91
2019-05-07T07:31:39.942Z,8.04
2019-05-07T07:34:09.747Z,8.16
2019-05-07T07:36:44.794Z,8.33
2019-05-07T07:39:14.314Z,8.59
2019-05-07T07:41:45.540Z,8.75
2019-05-07T07:44:14.963Z,8.69
2019-05-07T07:46:44.410Z,8.58
2019-05-07T07:49:15.130Z,8.57
2019-05-07T07:51:45.803Z,8.49
2019-05-07T07:54:15.402Z,8.46
2019-05-07T07:56:52.624Z,8.68
2019-05-07T07:59:32.862Z,8.30
2019-05-07T08:02:07.264Z,8.32
2019-05-07T08:04:36.849Z,8.32
2019-05-07T08:07:06.452Z,8.16
2019-05-07T08:09:36.029Z,8.38
2019-05-07T08:12:06.441Z,8.67
2019-05-07T08:14:36.131Z,8.63
2019-05-07T08:17:07.827Z,8.48
2019-05-07T08:19:37.357Z,8.44
2019-05-07T08:22:06.903Z,8.17
2019-05-07T08:24:36.347Z,8.21
2019-05-07T08:27:05.889Z,8.19
2019-05-07T08:29:35.412Z,8.23
2019-05-07T08:32:24.884Z,8.41
2019-05-07T08:34:58.481Z,8.88
2019-05-07T08:37:27.962Z,8.99
2019-05-07T08:39:57.389Z,8.92
2019-05-07T08:42:26.906Z,8.73
2019-05-07T08:45:04.008Z,8.89
2019-05-07T08:47:42.550Z,9.10
2019-05-07T08:50:12.594Z,8.79
2019-05-07T08:52:43.943Z,8.63
2019-05-07T08:55:13.514Z,8.68
2019-05-07T08:57:45.769Z,8.80
2019-05-07T09:00:16.502Z,9.09
2019-05-07T09:02:46.113Z,9.57
2019-05-07T09:05:15.799Z,9.89
2019-05-07T09:07:45.479Z,10.26
2019-05-07T09:10:15.096Z,10.36
2019-05-07T09:12:44.596Z,10.27
2019-05-07T09:15:14.509Z,10.42
2019-05-07T09:17:44.791Z,10.35
2019-05-07T09:20:15.072Z,10.35
2019-05-07T09:22:44.658Z,10.09
2019-05-07T09:25:14.541Z,10.07
2019-05-07T09:27:45.886Z,10.26
2019-05-07T09:30:22.881Z,10.26
2019-05-07T09:32:54.317Z,10.42
2019-05-07T09:35:32.053Z,10.55
2019-05-07T09:38:03.193Z,10.66
2019-05-07T09:40:33.318Z,10.30
2019-05-07T09:43:02.893Z,10.47
2019-05-07T09:45:32.823Z,10.69
2019-05-07T09:48:02.999Z,10.89
2019-05-07T09:50:32.743Z,10.79
2019-05-07T09:53:02.534Z,10.16
2019-05-07T09:55:32.713Z,10.19
2019-05-07T09:58:02.290Z,9.79
2019-05-07T10:00:32.139Z,9.91
2019-05-07T10:03:01.781Z,9.88
2019-05-07T10:05:32.153Z,9.96
2019-05-07T10:08:02.031Z,10.00
2019-05-07T10:10:32.948Z,10.21
2019-05-07T10:13:07.115Z,10.07
2019-05-07T10:15:36.624Z,10.30
2019-05-07T10:18:07.818Z,10.23
2019-05-07T10:20:37.389Z,10.42
2019-05-07T10:23:08.513Z,10.52
2019-05-07T10:25:41.266Z,10.40
2019-05-07T10:28:12.552Z,10.35
2019-05-07T10:30:42.839Z,10.34
2019-05-07T10:33:12.525Z,10.29
2019-05-07T10:35:43.483Z,10.34
2019-05-07T10:38:13.083Z,10.09
2019-05-07T10:40:42.665Z,10.43
2019-05-07T10:43:12.416Z,10.41
2019-05-07T10:46:02.266Z,10.69
2019-05-07T10:48:32.985Z,11.11
2019-05-07T10:51:03.442Z,11.48
2019-05-07T10:53:32.916Z,11.89
2019-05-07T10:56:02.827Z,11.79
2019-05-07T10:58:32.342Z,11.69
2019-05-07T11:01:02.923Z,11.31
2019-05-07T11:03:32.685Z,11.23
2019-05-07T11:06:02.360Z,11.61
2019-05-07T11:08:32.920Z,11.11
2019-05-07T11:11:03.035Z,11.16
2019-05-07T11:13:32.869Z,11.39
2019-05-07T11:16:06.484Z,11.16
2019-05-07T11:18:37.535Z,11.26
2019-05-07T11:21:08.599Z,11.37
2019-05-07T11:23:38.199Z,11.25
2019-05-07T11:26:07.803Z,11.66
2019-05-07T11:28:38.994Z,11.68
2019-05-07T11:31:08.695Z,11.41
2019-05-07T11:33:38.130Z,11.08
2019-05-07T11:36:07.603Z,11.31
2019-05-07T11:38:37.997Z,11.17
2019-05-07T11:41:07.433Z,11.19
2019-05-07T11:43:41.188Z,11.28
2019-05-07T11:46:15.023Z,11.31
2019-05-07T11:48:48.826Z,11.50
2019-05-07T11:51:25.843Z,11.37
2019-05-07T11:54:09.119Z,11.42
2019-05-07T11:56:39.035Z,11.66
2019-05-07T11:59:13.338Z,12.15
2019-05-07T12:01:56.709Z,12.19
2019-05-07T12:04:27.896Z,11.78
2019-05-07T12:06:57.407Z,11.54
2019-05-07T12:09:26.897Z,11.76
2019-05-07T12:11:56.764Z,11.91
2019-05-07T12:14:31.346Z,12.05
2019-05-07T12:16:57.492Z,11.56
2019-05-07T12:19:26.953Z,11.53
2019-05-07T12:21:56.658Z,11.69
2019-05-07T12:24:26.265Z,11.64
2019-05-07T12:26:55.669Z,11.76
2019-05-07T12:29:25.172Z,11.86
2019-05-07T12:32:02.725Z,11.70
2019-05-07T12:34:39.829Z,11.98
2019-05-07T12:37:09.235Z,11.98
2019-05-07T12:39:38.887Z,12.03
2019-05-07T12:42:08.487Z,11.89
2019-05-07T12:44:37.940Z,11.77
2019-05-07T12:47:07.428Z,11.72
2019-05-07T12:49:36.891Z,11.63
2019-05-07T12:52:08.230Z,11.50
2019-05-07T12:54:52.445Z,11.41
2019-05-07T12:57:22.147Z,10.73
2019-05-07T12:59:52.953Z,10.32
2019-05-07T13:02:37.966Z,10.08
2019-05-07T13:04:58.883Z,9.87
2019-05-07T13:07:29.940Z,9.63
2019-05-07T13:09:59.529Z,9.41
2019-05-07T13:12:28.974Z,9.38
2019-05-07T13:14:58.471Z,9.22
2019-05-07T13:17:27.911Z,9.34
2019-05-07T13:19:57.490Z,9.22
2019-05-07T13:22:26.939Z,9.47
2019-05-07T13:24:57.952Z,9.54
2019-05-07T13:27:28.148Z,9.55
2019-05-07T13:29:59.711Z,9.64
2019-05-07T13:32:32.047Z,9.99
2019-05-07T13:35:02.818Z,10.56
2019-05-07T13:37:37.102Z,10.78
2019-05-07T13:40:08.793Z,11.11
2019-05-07T13:42:52.349Z,11.84
2019-05-07T13:45:38.818Z,11.92
2019-05-07T13:48:11.994Z,12.20
2019-05-07T13:50:41.998Z,12.31
2019-05-07T13:53:12.331Z,12.38
2019-05-07T13:55:42.424Z,12.12
2019-05-07T13:58:14.348Z,11.69
2019-05-07T14:00:45.420Z,11.95
2019-05-07T14:03:15.042Z,12.12
2019-05-07T14:05:44.697Z,11.89
2019-05-07T14:08:14.334Z,12.03
2019-05-07T14:10:43.920Z,12.38
2019-05-07T14:13:17.330Z,12.82
2019-05-07T14:16:03.362Z,12.60
2019-05-07T14:18:32.822Z,12.50
2019-05-07T14:21:04.505Z,12.38
2019-05-07T14:23:36.966Z,12.70
2019-05-07T14:26:06.689Z,12.68
2019-05-07T14:28:36.110Z,12.73
2019-05-07T14:31:05.763Z,13.20
2019-05-07T14:33:54.224Z,13.25
2019-05-07T14:36:32.307Z,13.48
2019-05-07T14:39:02.436Z,13.98
2019-05-07T14:41:32.529Z,13.65
2019-05-07T14:44:03.982Z,13.79
2019-05-07T14:46:44.491Z,14.19
2019-05-07T14:49:06.465Z,14.22
2019-05-07T14:51:35.959Z,13.79
2019-05-07T14:54:05.537Z,14.71
2019-05-07T14:56:35.292Z,14.62
2019-05-07T14:59:04.899Z,15.07
2019-05-07T15:01:34.530Z,15.23
2019-05-07T15:04:04.869Z,14.94
2019-05-07T15:06:35.904Z,14.16
2019-05-07T15:09:06.537Z,13.82
2019-05-07T15:11:37.034Z,12.96
2019-05-07T15:14:06.481Z,12.86
2019-05-07T15:16:35.906Z,13.14
2019-05-07T15:19:05.591Z,13.42
2019-05-07T15:21:35.069Z,13.44
2019-05-07T15:24:04.646Z,13.07
2019-05-07T15:26:35.126Z,12.83
2019-05-07T15:29:11.987Z,12.46
2019-05-07T15:31:45.299Z,12.18
2019-05-07T15:34:14.843Z,11.93
2019-05-07T15:36:44.481Z,10.52
2019-05-07T15:39:13.975Z,9.39
2019-05-07T15:41:43.628Z,8.95
2019-05-07T15:44:13.035Z,8.67
2019-05-07T15:46:42.871Z,8.70
2019-05-07T15:49:12.614Z,8.56
2019-05-07T15:51:42.106Z,8.34
2019-05-07T15:54:12.837Z,8.18
2019-05-07T15:56:42.499Z,8.26
2019-05-07T15:59:13.640Z,8.21
2019-05-07T16:01:43.078Z,8.23
2019-05-07T16:04:20.017Z,8.24
2019-05-07T16:06:43.700Z,8.29
2019-05-07T16:09:13.177Z,8.21
2019-05-07T16:11:43.188Z,8.23
2019-05-07T16:14:26.437Z,8.22
2019-05-07T16:16:56.947Z,8.20
2019-05-07T16:19:27.955Z,8.32
2019-05-07T16:21:59.035Z,8.18
2019-05-07T16:24:28.451Z,8.17
2019-05-07T16:26:58.063Z,8.14
2019-05-07T16:29:27.468Z,8.17
2019-05-07T16:31:56.919Z,8.12
2019-05-07T16:34:26.387Z,8.00
2019-05-07T16:36:56.729Z,7.82
2019-05-07T16:39:26.146Z,7.88
2019-05-07T16:41:56.525Z,7.88
2019-05-07T16:44:25.979Z,7.88
2019-05-07T16:46:55.524Z,7.92
2019-05-07T16:49:24.947Z,8.01
2019-05-07T16:51:54.397Z,8.11
2019-05-07T16:54:23.812Z,8.25
2019-05-07T16:57:12.191Z,8.38
2019-05-07T16:59:42.695Z,8.50
2019-05-07T17:02:13.940Z,8.68
2019-05-07T17:05:03.151Z,8.83
2019-05-07T17:07:33.431Z,9.04
2019-05-07T17:10:03.232Z,9.13
2019-05-07T17:12:32.678Z,9.07
2019-05-07T17:15:02.924Z,9.10
2019-05-07T17:17:32.487Z,9.22
2019-05-07T17:20:02.750Z,9.22
2019-05-07T17:22:32.427Z,9.28
2019-05-07T17:25:03.606Z,9.28
2019-05-07T17:27:33.051Z,9.22
2019-05-07T17:30:03.039Z,9.25
2019-05-07T17:32:32.533Z,9.38
2019-05-07T17:35:03.831Z,9.89
2019-05-07T17:37:33.300Z,9.67
2019-05-07T17:40:03.172Z,9.62
2019-05-07T17:42:32.917Z,9.57
2019-05-07T17:45:03.038Z,9.35
2019-05-07T17:47:32.678Z,9.31
2019-05-07T17:50:03.287Z,9.32
2019-05-07T17:52:33.624Z,9.37
2019-05-07T17:55:03.439Z,9.25
2019-05-07T17:57:33.526Z,9.24
2019-05-07T18:00:04.791Z,9.21
2019-05-07T18:02:38.503Z,9.10
2019-05-07T18:05:11.804Z,9.10
2019-05-07T18:07:42.035Z,9.03
2019-05-07T18:10:12.650Z,8.95
2019-05-07T18:12:42.612Z,8.88
2019-05-07T18:15:12.706Z,8.93
2019-05-07T18:17:43.792Z,8.82
2019-05-07T18:20:14.795Z,8.72
2019-05-07T18:22:44.325Z,8.66
2019-05-07T18:25:13.844Z,8.70
2019-05-07T18:27:43.368Z,8.74
2019-05-07T18:30:13.146Z,8.70
2019-05-07T18:32:44.252Z,8.57
2019-05-07T18:35:14.029Z,8.59
2019-05-07T18:37:52.623Z,8.51
2019-05-07T18:40:22.727Z,8.46
2019-05-07T18:42:52.592Z,8.37
2019-05-07T18:45:22.137Z,8.36
2019-05-07T18:47:51.834Z,8.32
2019-05-07T18:50:22.599Z,8.18
2019-05-07T18:52:52.503Z,8.14
2019-05-07T18:55:22.679Z,8.02
2019-05-07T18:57:52.346Z,7.96
2019-05-07T19:00:23.483Z,7.89
2019-05-07T19:02:52.994Z,7.78
2019-05-07T19:05:22.476Z,7.65
2019-05-07T19:08:04.648Z,7.64
2019-05-07T19:10:23.117Z,7.64
2019-05-07T19:12:53.042Z,7.62
2019-05-07T19:15:22.420Z,7.57
2019-05-07T19:17:53.408Z,7.52
2019-05-07T19:20:28.985Z,7.50
2019-05-07T19:22:58.434Z,7.42
2019-05-07T19:25:29.763Z,7.34
2019-05-07T19:27:59.491Z,7.34
2019-05-07T19:30:28.920Z,7.31
2019-05-07T19:32:58.382Z,7.32
2019-05-07T19:35:27.845Z,7.31
2019-05-07T19:37:57.720Z,7.24
2019-05-07T19:40:27.238Z,7.24
2019-05-07T19:42:56.703Z,7.25
2019-05-07T19:45:26.221Z,7.22
2019-05-07T19:47:55.742Z,7.20
2019-05-07T19:50:25.215Z,7.21
2019-05-07T19:52:54.747Z,7.21
2019-05-07T19:55:24.198Z,7.18
2019-05-07T19:57:55.324Z,7.19
2019-05-07T20:00:25.860Z,7.16
2019-05-07T20:02:59.941Z,7.12
2019-05-07T20:05:29.631Z,7.12
2019-05-07T20:08:02.019Z,7.13
2019-05-07T20:10:42.206Z,7.12
2019-05-07T20:13:12.437Z,7.14
2019-05-07T20:15:43.791Z,7.13
2019-05-07T20:18:13.329Z,7.13
2019-05-07T20:20:42.737Z,7.13
2019-05-07T20:23:12.268Z,7.09
2019-05-07T20:25:42.119Z,7.08
2019-05-07T20:28:12.783Z,7.06
2019-05-07T20:30:42.341Z,7.06
2019-05-07T20:33:13.357Z,7.06
2019-05-07T20:35:43.767Z,7.12
2019-05-07T20:38:13.358Z,7.08
2019-05-07T20:40:42.775Z,7.08
2019-05-07T20:43:13.716Z,7.11
2019-05-07T20:45:43.126Z,7.11
2019-05-07T20:48:12.586Z,7.09
2019-05-07T20:50:42.462Z,7.09
2019-05-07T20:53:12.122Z,7.08
2019-05-07T20:55:43.739Z,7.04
2019-05-07T20:58:13.160Z,7.03
2019-05-07T21:00:43.421Z,7.03
2019-05-07T21:03:23.906Z,7.04
2019-05-07T21:05:53.434Z,7.01
2019-05-07T21:08:23.205Z,6.94
2019-05-07T21:10:53.483Z,6.91
2019-05-07T21:13:31.040Z,6.90
2019-05-07T21:15:54.556Z,6.89
2019-05-07T21:18:24.183Z,6.87
2019-05-07T21:20:53.735Z,6.89
2019-05-07T21:23:23.455Z,6.86
2019-05-07T21:25:53.294Z,6.82
2019-05-07T21:28:22.776Z,6.81
2019-05-07T21:30:52.480Z,6.84
2019-05-07T21:33:22.951Z,6.83
2019-05-07T21:35:52.616Z,6.82
2019-05-07T21:38:22.505Z,6.83
2019-05-07T21:40:52.030Z,6.84
2019-05-07T21:43:22.161Z,6.86
2019-05-07T21:45:53.543Z,6.82
2019-05-07T21:48:22.989Z,6.77
2019-05-07T21:50:54.634Z,6.79
2019-05-07T21:53:25.855Z,6.75
2019-05-07T21:56:02.517Z,6.73
2019-05-07T21:58:41.371Z,6.68
2019-05-07T22:01:12.655Z,6.68
2019-05-07T22:03:44.116Z,6.61
2019-05-07T22:06:13.598Z,6.59
2019-05-07T22:08:43.172Z,6.55
2019-05-07T22:11:13.122Z,6.48
2019-05-07T22:13:43.461Z,6.44
2019-05-07T22:16:13.313Z,6.41
2019-05-07T22:18:42.912Z,6.30
2019-05-07T22:21:13.937Z,6.24
2019-05-07T22:23:43.524Z,6.17
2019-05-07T22:26:22.297Z,6.14
2019-05-07T22:28:44.154Z,6.09
2019-05-07T22:31:24.251Z,6.02
2019-05-07T22:34:07.250Z,5.97
2019-05-07T22:36:36.904Z,5.92
2019-05-07T22:39:08.539Z,5.84
2019-05-07T22:41:37.987Z,5.81
2019-05-07T22:44:07.438Z,5.74
2019-05-07T22:46:36.880Z,5.69
2019-05-07T22:49:06.335Z,5.58
2019-05-07T22:51:35.852Z,5.48
2019-05-07T22:54:05.439Z,5.42
2019-05-07T22:56:52.718Z,5.36
2019-05-07T22:59:22.613Z,5.33
2019-05-07T23:01:54.999Z,5.28
2019-05-07T23:04:23.394Z,5.23
2019-05-07T23:06:53.003Z,5.12
2019-05-07T23:09:22.600Z,5.03
2019-05-07T23:11:54.824Z,4.97
2019-05-07T23:14:23.201Z,4.89
2019-05-07T23:16:55.382Z,4.83
2019-05-07T23:19:23.766Z,4.73
2019-05-07T23:21:53.188Z,4.66
2019-05-07T23:24:24.936Z,4.60
2019-05-07T23:26:54.472Z,4.56
2019-05-07T23:29:23.988Z,4.50
2019-05-07T23:31:55.330Z,4.40
2019-05-07T23:34:24.542Z,4.36
2019-05-07T23:36:53.992Z,4.32
2019-05-07T23:39:25.160Z,4.24
2019-05-07T23:42:02.285Z,4.17
2019-05-07T23:44:31.389Z,4.12
2019-05-07T23:47:02.756Z,4.05
2019-05-07T23:49:32.382Z,3.93
2019-05-07T23:52:02.511Z,3.88
2019-05-07T23:54:32.902Z,3.81
2019-05-07T23:57:06.958Z,3.69
2019-05-07T23:59:33.563Z,3.66
